createdAt,value
2019-03-20T00:01:24.255Z,43.67
2019-03-20T00:03:57.175Z,39.50
2019-03-20T00:06:30.044Z,37.00
2019-03-20T00:09:03.282Z,29.80
2019-03-20T00:11:37.174Z,38.47
2019-03-20T00:14:10.261Z,41.63
2019-03-20T00:16:43.224Z,36.60
2019-03-20T00:19:16.069Z,31.43
2019-03-20T00:21:49.033Z,32.30
2019-03-20T00:24:22.032Z,35.97
2019-03-20T00:26:55.285Z,36.67
2019-03-20T00:29:29.167Z,33.03
2019-03-20T00:32:02.085Z,28.97
2019-03-20T00:34:35.219Z,32.40
2019-03-20T00:37:08.186Z,31.07
2019-03-20T00:39:42.102Z,33.57
2019-03-20T00:42:14.942Z,29.30
2019-03-20T00:44:47.777Z,28.83
2019-03-20T00:47:20.818Z,30.47
2019-03-20T00:49:53.696Z,25.40
2019-03-20T00:52:26.509Z,27.83
2019-03-20T00:54:59.383Z,26.03
2019-03-20T00:57:32.224Z,26.80
2019-03-20T01:00:06.088Z,27.10
2019-03-20T01:02:38.866Z,24.73
2019-03-20T01:05:13.286Z,26.00
2019-03-20T01:07:46.163Z,25.83
2019-03-20T01:10:19.840Z,26.03
2019-03-20T01:12:52.873Z,24.83
2019-03-20T01:15:25.679Z,28.63
2019-03-20T01:17:58.582Z,27.53
2019-03-20T01:20:31.452Z,29.93
2019-03-20T01:23:04.272Z,26.20
2019-03-20T01:25:37.156Z,25.03
2019-03-20T01:28:09.911Z,25.90
2019-03-20T01:30:42.800Z,25.20
2019-03-20T01:33:15.791Z,28.00
2019-03-20T01:35:48.595Z,29.67
2019-03-20T01:38:21.403Z,29.67
2019-03-20T01:40:57.907Z,31.47
2019-03-20T01:43:28.680Z,30.83
2019-03-20T01:46:01.493Z,28.77
2019-03-20T01:48:34.255Z,26.20
2019-03-20T01:51:23.197Z,26.83
2019-03-20T01:53:55.920Z,27.93
2019-03-20T01:56:28.629Z,26.17
2019-03-20T01:59:01.561Z,32.60
2019-03-20T02:01:34.400Z,33.27
2019-03-20T02:04:07.341Z,30.10
2019-03-20T02:06:40.219Z,34.13
2019-03-20T02:09:13.148Z,41.33
2019-03-20T02:11:46.105Z,30.83
2019-03-20T02:14:19.019Z,27.37
2019-03-20T02:16:51.817Z,25.17
2019-03-20T02:19:24.507Z,21.50
2019-03-20T02:21:57.380Z,21.47
2019-03-20T02:24:30.163Z,22.80
2019-03-20T02:27:03.201Z,23.17
2019-03-20T02:29:36.005Z,23.37
2019-03-20T02:32:08.932Z,21.90
2019-03-20T02:34:41.730Z,21.80
2019-03-20T02:37:14.564Z,22.20
2019-03-20T02:39:47.451Z,21.87
2019-03-20T02:42:20.342Z,20.00
2019-03-20T02:44:53.182Z,20.30
2019-03-20T02:47:26.035Z,20.63
2019-03-20T02:49:58.750Z,19.80
2019-03-20T02:52:31.591Z,20.87
2019-03-20T02:55:04.720Z,18.73
2019-03-20T02:57:37.649Z,21.80
2019-03-20T03:00:13.410Z,21.07
2019-03-20T03:02:46.196Z,22.83
2019-03-20T03:05:19.414Z,20.83
2019-03-20T03:07:52.232Z,22.87
2019-03-20T03:10:25.027Z,22.67
2019-03-20T03:12:57.885Z,21.17
2019-03-20T03:15:30.645Z,21.80
2019-03-20T03:18:03.465Z,23.67
2019-03-20T03:20:36.279Z,23.13
2019-03-20T03:23:09.195Z,23.33
2019-03-20T03:25:43.226Z,22.03
2019-03-20T03:28:16.054Z,21.87
2019-03-20T03:30:48.940Z,22.20
2019-03-20T03:33:21.813Z,22.10
2019-03-20T03:35:56.583Z,20.20
2019-03-20T03:38:29.299Z,20.07
2019-03-20T03:41:02.100Z,20.30
2019-03-20T03:43:34.976Z,20.73
2019-03-20T03:46:07.846Z,21.80
2019-03-20T03:48:40.639Z,22.23
2019-03-20T03:51:13.434Z,22.23
2019-03-20T03:53:46.243Z,22.13
2019-03-20T03:56:19.080Z,22.27
2019-03-20T03:58:51.915Z,22.37
2019-03-20T04:01:24.889Z,21.53
2019-03-20T04:03:57.655Z,21.30
2019-03-20T04:06:36.004Z,21.93
2019-03-20T04:09:06.666Z,21.27
2019-03-20T04:11:39.672Z,22.40
2019-03-20T04:14:12.452Z,21.57
2019-03-20T04:16:45.352Z,23.67
2019-03-20T04:19:18.192Z,23.73
2019-03-20T04:21:51.020Z,23.27
2019-03-20T04:24:23.907Z,22.53
2019-03-20T04:26:56.755Z,23.67
2019-03-20T04:29:29.665Z,22.57
2019-03-20T04:32:02.563Z,24.27
2019-03-20T04:34:35.439Z,19.67
2019-03-20T04:37:08.327Z,20.10
2019-03-20T04:39:42.282Z,19.53
2019-03-20T04:42:15.022Z,19.27
2019-03-20T04:44:47.879Z,20.73
2019-03-20T04:47:20.688Z,19.60
2019-03-20T04:49:53.568Z,22.83
2019-03-20T04:52:26.453Z,21.10
2019-03-20T04:54:59.309Z,21.07
2019-03-20T04:57:32.270Z,21.47
2019-03-20T05:00:06.865Z,22.47
2019-03-20T05:02:40.214Z,23.07
2019-03-20T05:05:13.096Z,21.30
2019-03-20T05:07:47.418Z,20.87
2019-03-20T05:10:20.232Z,18.67
2019-03-20T05:12:53.154Z,16.67
2019-03-20T05:15:26.001Z,18.53
2019-03-20T05:17:58.806Z,17.33
2019-03-20T05:20:31.631Z,18.67
2019-03-20T05:23:04.505Z,19.70
2019-03-20T05:25:37.726Z,20.90
2019-03-20T05:28:10.604Z,18.03
2019-03-20T05:30:45.925Z,17.57
2019-03-20T05:33:19.049Z,18.53
2019-03-20T05:35:51.828Z,19.00
2019-03-20T05:38:24.718Z,17.83
2019-03-20T05:40:57.632Z,17.57
2019-03-20T05:43:30.612Z,18.83
2019-03-20T05:46:03.496Z,17.30
2019-03-20T05:48:36.498Z,17.10
2019-03-20T05:51:09.386Z,17.40
2019-03-20T05:53:42.248Z,19.17
2019-03-20T05:56:15.105Z,18.37
2019-03-20T05:58:48.031Z,18.93
2019-03-20T06:01:21.007Z,18.83
2019-03-20T06:03:53.745Z,17.77
2019-03-20T06:06:26.648Z,18.60
2019-03-20T06:08:59.526Z,17.47
2019-03-20T06:11:32.773Z,17.87
2019-03-20T06:14:06.961Z,18.43
2019-03-20T06:16:39.716Z,18.13
2019-03-20T06:19:12.630Z,18.23
2019-03-20T06:21:45.690Z,17.20
2019-03-20T06:24:18.501Z,17.17
2019-03-20T06:26:51.342Z,16.73
2019-03-20T06:29:24.080Z,18.20
2019-03-20T06:31:56.900Z,16.73
2019-03-20T06:34:29.743Z,16.73
2019-03-20T06:37:02.553Z,17.93
2019-03-20T06:39:35.571Z,16.63
2019-03-20T06:42:08.477Z,16.30
2019-03-20T06:44:41.281Z,18.40
2019-03-20T06:47:13.979Z,17.20
2019-03-20T06:49:46.826Z,16.87
2019-03-20T06:52:19.530Z,16.70
2019-03-20T06:54:52.351Z,17.40
2019-03-20T06:57:25.234Z,16.00
2019-03-20T07:01:06.554Z,14.83
2019-03-20T07:04:37.022Z,15.93
2019-03-20T07:07:43.495Z,15.53
2019-03-20T07:10:36.100Z,15.17
2019-03-20T07:13:08.960Z,16.83
2019-03-20T07:15:43.723Z,16.30
2019-03-20T07:18:16.496Z,15.70
2019-03-20T07:20:49.202Z,14.07
2019-03-20T07:23:22.014Z,14.30
2019-03-20T07:25:55.009Z,14.60
2019-03-20T07:28:27.941Z,15.20
2019-03-20T07:31:00.754Z,15.37
2019-03-20T07:33:33.534Z,14.77
2019-03-20T07:36:06.514Z,14.53
2019-03-20T07:38:39.342Z,14.57
2019-03-20T07:41:12.247Z,14.57
2019-03-20T07:43:45.010Z,14.93
2019-03-20T07:46:17.858Z,14.23
2019-03-20T07:48:50.731Z,14.77
2019-03-20T07:51:23.559Z,14.37
2019-03-20T07:53:56.392Z,13.90
2019-03-20T07:56:29.179Z,16.23
2019-03-20T07:59:01.967Z,13.30
2019-03-20T08:01:34.696Z,13.87
2019-03-20T08:04:07.397Z,14.33
2019-03-20T08:06:40.212Z,13.17
2019-03-20T08:09:13.014Z,14.37
2019-03-20T08:11:45.941Z,12.90
2019-03-20T08:14:18.774Z,12.93
2019-03-20T08:16:51.754Z,12.37
2019-03-20T08:19:24.651Z,12.73
2019-03-20T08:21:57.484Z,12.00
2019-03-20T08:24:30.370Z,12.40
2019-03-20T08:27:03.290Z,12.23
2019-03-20T08:29:36.202Z,11.67
2019-03-20T08:32:09.122Z,10.27
2019-03-20T08:34:41.934Z,11.83
2019-03-20T08:37:14.767Z,9.50
2019-03-20T08:39:47.934Z,10.53
2019-03-20T08:42:22.018Z,10.32
2019-03-20T08:44:54.942Z,10.93
2019-03-20T08:47:27.723Z,9.67
2019-03-20T08:50:00.590Z,10.07
2019-03-20T08:52:33.495Z,9.80
2019-03-20T08:55:07.510Z,7.42
2019-03-20T08:57:41.882Z,9.97
2019-03-20T09:00:19.326Z,9.05
2019-03-20T09:02:52.436Z,10.50
2019-03-20T09:05:25.296Z,10.08
2019-03-20T09:07:58.100Z,9.40
2019-03-20T09:10:31.957Z,8.98
2019-03-20T09:13:04.812Z,9.65
2019-03-20T09:15:37.640Z,7.35
2019-03-20T09:18:10.416Z,7.22
2019-03-20T09:20:43.265Z,8.10
2019-03-20T09:23:16.073Z,7.92
2019-03-20T09:25:48.949Z,8.60
2019-03-20T09:28:21.742Z,7.35
2019-03-20T09:30:54.589Z,5.87
2019-03-20T09:33:27.582Z,7.22
2019-03-20T09:36:00.374Z,6.25
2019-03-20T09:38:43.050Z,6.95
2019-03-20T09:41:07.730Z,4.80
2019-03-20T09:43:40.527Z,5.70
2019-03-20T09:46:13.305Z,4.92
2019-03-20T09:48:46.086Z,5.20
2019-03-20T09:51:18.787Z,5.05
2019-03-20T09:53:51.532Z,4.90
2019-03-20T09:56:25.297Z,4.62
2019-03-20T09:58:57.989Z,4.20
2019-03-20T10:01:30.751Z,4.75
2019-03-20T10:04:03.649Z,4.25
2019-03-20T10:06:36.540Z,3.85
2019-03-20T10:09:10.617Z,4.60
2019-03-20T10:11:43.446Z,4.17
2019-03-20T10:14:16.246Z,4.42
2019-03-20T10:16:48.948Z,4.67
2019-03-20T10:19:21.785Z,3.20
2019-03-20T10:21:54.672Z,4.42
2019-03-20T10:24:27.485Z,3.95
2019-03-20T10:27:00.291Z,3.83
2019-03-20T10:29:33.584Z,2.80
2019-03-20T10:32:06.363Z,2.65
2019-03-20T10:34:39.818Z,3.10
2019-03-20T10:37:12.657Z,2.35
2019-03-20T10:39:45.508Z,2.05
2019-03-20T10:42:18.629Z,1.52
2019-03-20T10:44:52.486Z,2.00
2019-03-20T10:47:25.216Z,1.50
2019-03-20T10:49:57.992Z,1.57
2019-03-20T10:52:30.768Z,1.52
2019-03-20T10:55:03.536Z,1.37
2019-03-20T10:57:36.473Z,1.60
2019-03-20T11:00:20.788Z,1.65
2019-03-20T11:02:53.728Z,1.30
2019-03-20T11:05:28.077Z,1.92
2019-03-20T11:08:00.938Z,1.82
2019-03-20T11:10:33.920Z,2.10
2019-03-20T11:13:06.702Z,2.15
2019-03-20T11:15:39.519Z,2.02
2019-03-20T11:18:12.551Z,2.42
2019-03-20T11:20:45.466Z,2.20
2019-03-20T11:23:18.311Z,1.90
2019-03-20T11:25:51.167Z,2.27
2019-03-20T11:28:23.995Z,1.98
2019-03-20T11:30:56.848Z,2.27
2019-03-20T11:33:29.750Z,2.17
2019-03-20T11:36:02.573Z,2.22
2019-03-20T11:38:35.500Z,2.40
2019-03-20T11:41:08.214Z,1.72
2019-03-20T11:43:41.103Z,2.95
2019-03-20T11:46:15.506Z,2.30
2019-03-20T11:48:48.382Z,2.45
2019-03-20T11:51:21.165Z,2.67
2019-03-20T11:53:54.000Z,2.75
2019-03-20T11:56:26.959Z,2.65
2019-03-20T11:58:59.760Z,3.27
2019-03-20T12:01:32.637Z,2.85
2019-03-20T12:04:05.881Z,2.70
2019-03-20T12:06:38.733Z,2.90
2019-03-20T12:09:12.217Z,2.87
2019-03-20T12:11:46.191Z,2.30
2019-03-20T12:14:19.112Z,2.62
2019-03-20T12:16:52.085Z,3.62
2019-03-20T12:19:24.912Z,2.67
2019-03-20T12:21:57.858Z,3.35
2019-03-20T12:24:30.791Z,2.77
2019-03-20T12:27:14.566Z,2.40
2019-03-20T12:29:38.289Z,2.40
2019-03-20T12:32:11.128Z,2.55
2019-03-20T12:34:44.031Z,2.72
2019-03-20T12:37:17.806Z,2.85
2019-03-20T12:39:53.440Z,2.87
2019-03-20T12:42:25.222Z,2.25
2019-03-20T12:44:57.972Z,2.08
2019-03-20T12:47:31.976Z,2.12
2019-03-20T12:50:05.213Z,2.33
2019-03-20T12:52:38.242Z,2.62
2019-03-20T12:55:12.761Z,2.25
2019-03-20T12:57:45.563Z,2.25
2019-03-20T13:00:20.634Z,2.20
2019-03-20T13:02:53.473Z,2.35
2019-03-20T13:05:27.282Z,2.00
2019-03-20T13:08:05.719Z,1.87
2019-03-20T13:10:34.654Z,2.58
2019-03-20T13:13:08.518Z,2.30
2019-03-20T13:15:41.406Z,2.25
2019-03-20T13:18:14.379Z,2.22
2019-03-20T13:20:47.232Z,2.25
2019-03-20T13:23:23.475Z,2.20
2019-03-20T13:25:56.271Z,2.70
2019-03-20T13:28:29.291Z,2.35
2019-03-20T13:31:09.062Z,2.58
2019-03-20T13:33:41.921Z,2.40
2019-03-20T13:36:14.806Z,2.52
2019-03-20T13:38:47.656Z,2.65
2019-03-20T13:41:20.504Z,2.77
2019-03-20T13:43:53.619Z,2.58
2019-03-20T13:46:26.415Z,2.90
2019-03-20T13:48:59.311Z,2.67
2019-03-20T13:51:32.233Z,2.60
2019-03-20T13:54:05.046Z,1.98
2019-03-20T13:56:37.964Z,1.77
2019-03-20T13:59:11.097Z,1.82
2019-03-20T14:01:43.990Z,2.30
2019-03-20T14:04:16.817Z,2.92
2019-03-20T14:06:49.755Z,2.37
2019-03-20T14:09:22.628Z,2.65
2019-03-20T14:11:55.365Z,2.50
2019-03-20T14:14:29.223Z,2.22
2019-03-20T14:17:02.138Z,1.92
2019-03-20T14:19:34.996Z,2.55
2019-03-20T14:22:07.820Z,2.22
2019-03-20T14:24:40.653Z,2.67
2019-03-20T14:27:13.555Z,2.20
2019-03-20T14:29:46.368Z,1.90
2019-03-20T14:32:20.242Z,2.05
2019-03-20T14:34:53.271Z,2.35
2019-03-20T14:37:35.474Z,2.52
2019-03-20T14:40:09.593Z,2.37
2019-03-20T14:42:43.016Z,2.12
2019-03-20T14:45:16.595Z,2.37
2019-03-20T14:47:49.624Z,2.10
2019-03-20T14:50:24.924Z,2.20
2019-03-20T14:52:57.937Z,2.55
2019-03-20T14:55:33.800Z,2.83
2019-03-20T14:58:06.948Z,2.45
2019-03-20T15:00:40.010Z,2.65
2019-03-20T15:03:14.998Z,2.22
2019-03-20T15:05:47.527Z,2.10
2019-03-20T15:08:20.239Z,1.92
2019-03-20T15:10:53.302Z,1.98
2019-03-20T15:13:26.331Z,2.15
2019-03-20T15:16:10.434Z,2.33
2019-03-20T15:18:44.998Z,2.22
2019-03-20T15:21:17.917Z,2.35
2019-03-20T15:23:50.953Z,2.70
2019-03-20T15:26:23.873Z,2.40
2019-03-20T15:28:58.448Z,2.20
2019-03-20T15:31:31.409Z,2.40
2019-03-20T15:34:07.390Z,2.35
2019-03-20T15:36:40.413Z,1.95
2019-03-20T15:39:16.360Z,2.20
2019-03-20T15:41:52.444Z,2.22
2019-03-20T15:44:25.509Z,2.52
2019-03-20T15:46:58.790Z,2.10
2019-03-20T15:49:37.179Z,2.05
2019-03-20T15:52:11.003Z,2.05
2019-03-20T15:54:43.851Z,2.00
2019-03-20T15:57:16.782Z,2.60
2019-03-20T15:59:49.864Z,2.17
2019-03-20T16:02:22.669Z,2.30
2019-03-20T16:04:57.031Z,2.02
2019-03-20T16:07:29.984Z,2.45
2019-03-20T16:10:03.015Z,2.20
2019-03-20T16:12:36.144Z,2.47
2019-03-20T16:15:12.093Z,2.30
2019-03-20T16:17:44.871Z,2.30
2019-03-20T16:20:17.937Z,2.60
2019-03-20T16:22:50.845Z,2.50
2019-03-20T16:25:23.662Z,2.17
2019-03-20T16:27:56.524Z,2.12
2019-03-20T16:30:32.702Z,2.15
2019-03-20T16:33:05.548Z,2.08
2019-03-20T16:35:38.396Z,2.22
2019-03-20T16:38:12.024Z,2.35
2019-03-20T16:40:45.093Z,2.12
2019-03-20T16:43:17.897Z,2.60
2019-03-20T16:45:50.870Z,2.47
2019-03-20T16:48:23.893Z,2.00
2019-03-20T16:50:56.870Z,2.10
2019-03-20T16:53:29.800Z,2.52
2019-03-20T16:56:02.637Z,2.50
2019-03-20T16:58:35.521Z,2.17
2019-03-20T17:01:08.339Z,2.80
2019-03-20T17:03:41.264Z,2.12
2019-03-20T17:06:14.302Z,2.00
2019-03-20T17:08:48.211Z,2.40
2019-03-20T17:11:30.334Z,2.77
2019-03-20T17:13:55.862Z,3.02
2019-03-20T17:16:28.696Z,3.47
2019-03-20T17:19:01.573Z,3.62
2019-03-20T17:21:34.420Z,2.95
2019-03-20T17:24:07.534Z,3.17
2019-03-20T17:26:40.436Z,3.50
2019-03-20T17:29:13.770Z,2.85
2019-03-20T17:31:46.684Z,3.70
2019-03-20T17:34:19.628Z,3.35
2019-03-20T17:36:52.747Z,3.87
2019-03-20T17:39:25.560Z,3.90
2019-03-20T17:41:58.338Z,4.00
2019-03-20T17:44:31.217Z,3.90
2019-03-20T17:47:04.091Z,4.45
2019-03-20T17:49:36.874Z,5.50
2019-03-20T17:52:09.785Z,5.50
2019-03-20T17:54:42.766Z,4.08
2019-03-20T17:57:15.706Z,7.50
2019-03-20T17:59:48.482Z,10.30
2019-03-20T18:02:24.328Z,11.70
2019-03-20T18:04:55.976Z,11.10
2019-03-20T18:07:28.743Z,38.78
2019-03-20T18:10:02.971Z,50.80
2019-03-20T18:12:36.105Z,28.02
2019-03-20T18:15:10.868Z,15.95
2019-03-20T18:17:43.845Z,13.38
2019-03-20T18:20:16.917Z,10.48
2019-03-20T18:22:49.776Z,9.00
2019-03-20T18:25:22.763Z,7.65
2019-03-20T18:27:55.644Z,7.83
2019-03-20T18:30:28.685Z,9.53
2019-03-20T18:33:01.420Z,9.85
2019-03-20T18:35:34.356Z,10.58
2019-03-20T18:38:08.336Z,11.35
2019-03-20T18:40:41.124Z,14.15
2019-03-20T18:43:14.024Z,15.03
2019-03-20T18:45:46.933Z,17.52
2019-03-20T18:48:20.003Z,16.55
2019-03-20T18:50:52.931Z,16.05
2019-03-20T18:53:25.807Z,16.57
2019-03-20T18:55:58.615Z,15.25
2019-03-20T18:58:31.347Z,13.08
2019-03-20T19:01:04.218Z,12.23
2019-03-20T19:03:40.014Z,13.43
2019-03-20T19:06:21.544Z,13.72
2019-03-20T19:08:54.451Z,13.13
2019-03-20T19:11:27.255Z,16.02
2019-03-20T19:14:02.396Z,18.32
2019-03-20T19:16:36.466Z,13.93
2019-03-20T19:19:09.472Z,11.00
2019-03-20T19:21:42.463Z,10.25
2019-03-20T19:24:15.450Z,9.93
2019-03-20T19:26:48.358Z,9.13
2019-03-20T19:29:21.116Z,9.00
2019-03-20T19:31:55.788Z,8.33
2019-03-20T19:34:28.723Z,9.00
2019-03-20T19:37:01.562Z,8.30
2019-03-20T19:39:34.511Z,8.05
2019-03-20T19:42:07.414Z,7.87
2019-03-20T19:44:40.614Z,8.48
2019-03-20T19:47:13.749Z,6.42
2019-03-20T19:49:46.702Z,6.95
2019-03-20T19:52:19.828Z,6.78
2019-03-20T19:54:52.883Z,7.25
2019-03-20T19:57:26.173Z,7.20
2019-03-20T19:59:59.656Z,6.90
2019-03-20T20:02:32.693Z,7.10
2019-03-20T20:05:15.289Z,7.47
2019-03-20T20:07:41.338Z,7.08
2019-03-20T20:10:15.331Z,6.03
2019-03-20T20:12:48.246Z,5.20
2019-03-20T20:15:22.761Z,4.70
2019-03-20T20:17:55.597Z,4.80
2019-03-20T20:20:28.594Z,5.33
2019-03-20T20:23:04.283Z,5.60
2019-03-20T20:25:36.786Z,5.53
2019-03-20T20:28:11.433Z,5.87
2019-03-20T20:30:44.571Z,5.95
2019-03-20T20:33:17.433Z,6.03
2019-03-20T20:35:50.431Z,7.83
2019-03-20T20:39:48.152Z,6.72
2019-03-20T20:42:21.268Z,6.42
2019-03-20T20:44:55.115Z,6.67
2019-03-20T20:47:28.067Z,6.28
2019-03-20T20:50:01.120Z,6.10
2019-03-20T20:52:37.295Z,5.92
2019-03-20T20:55:11.997Z,5.90
2019-03-20T20:57:45.304Z,6.97
2019-03-20T21:00:24.885Z,6.28
2019-03-20T21:02:58.509Z,6.40
2019-03-20T21:05:31.584Z,6.75
2019-03-20T21:08:04.373Z,6.75
2019-03-20T21:10:37.298Z,6.65
2019-03-20T21:13:10.274Z,6.33
2019-03-20T21:15:57.914Z,6.60
2019-03-20T21:19:33.386Z,6.87
2019-03-20T21:23:02.373Z,6.40
2019-03-20T21:25:36.151Z,6.80
2019-03-20T21:29:03.810Z,6.25
2019-03-20T21:32:29.014Z,6.60
2019-03-20T21:36:01.011Z,7.33
2019-03-20T21:38:34.811Z,7.33
2019-03-20T21:42:08.513Z,6.70
2019-03-20T21:45:26.817Z,7.87
2019-03-20T21:48:00.520Z,7.70
2019-03-20T21:51:16.812Z,9.18
2019-03-20T21:54:59.812Z,8.55
2019-03-20T21:58:01.031Z,7.67
2019-03-20T22:01:34.870Z,6.72
2019-03-20T22:04:08.457Z,7.40
2019-03-20T22:07:11.562Z,7.15
2019-03-20T22:10:43.226Z,6.60
2019-03-20T22:13:51.502Z,7.28
2019-03-20T22:17:29.291Z,7.30
2019-03-20T22:20:32.701Z,7.17
2019-03-20T22:24:03.906Z,6.75
2019-03-20T22:27:21.459Z,6.22
2019-03-20T22:29:54.964Z,7.00
2019-03-20T22:33:41.160Z,7.00
2019-03-20T22:36:30.208Z,7.25
2019-03-20T22:40:12.376Z,6.78
2019-03-20T22:42:55.634Z,6.60
2019-03-20T22:46:42.175Z,7.25
2019-03-20T22:50:23.210Z,7.70
2019-03-20T22:54:11.179Z,6.97
2019-03-20T22:57:16.400Z,7.10
2019-03-20T22:59:50.093Z,6.95
2019-03-20T23:02:55.694Z,8.38
2019-03-20T23:05:29.391Z,7.70
2019-03-20T23:08:12.559Z,7.17
2019-03-20T23:10:48.282Z,7.50
2019-03-20T23:13:21.807Z,8.30
2019-03-20T23:15:55.413Z,7.80
2019-03-20T23:18:30.088Z,7.60
2019-03-20T23:21:03.558Z,8.93
2019-03-20T23:23:38.799Z,9.30
2019-03-20T23:26:12.472Z,7.85
2019-03-20T23:28:46.066Z,9.03
2019-03-20T23:31:20.648Z,9.20
2019-03-20T23:33:54.277Z,9.23
2019-03-20T23:36:28.392Z,8.80
2019-03-20T23:39:02.120Z,8.78
2019-03-20T23:41:37.255Z,9.33
2019-03-20T23:44:10.942Z,8.75
2019-03-20T23:46:44.630Z,9.28
2019-03-20T23:49:21.787Z,9.55
2019-03-20T23:51:55.462Z,9.88
2019-03-20T23:54:52.883Z,9.58
2019-03-20T23:57:26.548Z,9.38
